sensor_id;sensor_type;location;lat;lon;timestamp;P1;durP1;ratioP1;P2;durP2;ratioP2
53961;SDS011;39868;53.398;6.564;2023-02-18T00:01:28;7.60;;;2.13;;
53961;SDS011;39868;53.398;6.564;2023-02-18T00:03:56;3.58;;;1.88;;
53961;SDS011;39868;53.398;6.564;2023-02-18T00:06:26;8.88;;;2.13;;
53961;SDS011;39868;53.398;6.564;2023-02-18T00:08:56;14.23;;;3.55;;
53961;SDS011;39868;53.398;6.564;2023-02-18T00:11:28;10.18;;;2.10;;
53961;SDS011;39868;53.398;6.564;2023-02-18T00:13:58;3.60;;;2.10;;
53961;SDS011;39868;53.398;6.564;2023-02-18T00:16:27;9.55;;;1.45;;
53961;SDS011;39868;53.398;6.564;2023-02-18T00:18:59;6.78;;;2.42;;
53961;SDS011;39868;53.398;6.564;2023-02-18T00:21:28;4.90;;;1.55;;
53961;SDS011;39868;53.398;6.564;2023-02-18T00:23:56;5.43;;;1.90;;
53961;SDS011;39868;53.398;6.564;2023-02-18T00:26:23;12.23;;;3.92;;
53961;SDS011;39868;53.398;6.564;2023-02-18T00:28:51;8.07;;;1.92;;
53961;SDS011;39868;53.398;6.564;2023-02-18T00:31:30;4.85;;;2.65;;
53961;SDS011;39868;53.398;6.564;2023-02-18T00:34:00;13.82;;;5.13;;
53961;SDS011;39868;53.398;6.564;2023-02-18T00:36:28;8.82;;;2.70;;
53961;SDS011;39868;53.398;6.564;2023-02-18T00:38:59;9.10;;;3.50;;
53961;SDS011;39868;53.398;6.564;2023-02-18T00:41:30;5.78;;;2.38;;
53961;SDS011;39868;53.398;6.564;2023-02-18T00:43:58;12.35;;;2.30;;
53961;SDS011;39868;53.398;6.564;2023-02-18T00:46:25;5.45;;;2.45;;
53961;SDS011;39868;53.398;6.564;2023-02-18T00:48:54;7.25;;;2.47;;
53961;SDS011;39868;53.398;6.564;2023-02-18T00:51:22;7.72;;;2.95;;
53961;SDS011;39868;53.398;6.564;2023-02-18T00:53:51;3.50;;;2.05;;
53961;SDS011;39868;53.398;6.564;2023-02-18T00:56:18;3.97;;;1.55;;
53961;SDS011;39868;53.398;6.564;2023-02-18T00:58:46;6.85;;;1.77;;
53961;SDS011;39868;53.398;6.564;2023-02-18T01:01:14;4.85;;;1.70;;
53961;SDS011;39868;53.398;6.564;2023-02-18T01:03:42;3.85;;;1.65;;
53961;SDS011;39868;53.398;6.564;2023-02-18T01:06:10;3.33;;;1.23;;
53961;SDS011;39868;53.398;6.564;2023-02-18T01:08:38;4.32;;;1.50;;
53961;SDS011;39868;53.398;6.564;2023-02-18T01:11:07;6.22;;;1.60;;
53961;SDS011;39868;53.398;6.564;2023-02-18T01:13:35;4.70;;;1.40;;
53961;SDS011;39868;53.398;6.564;2023-02-18T01:16:05;5.07;;;1.60;;
53961;SDS011;39868;53.398;6.564;2023-02-18T01:18:34;7.35;;;1.60;;
53961;SDS011;39868;53.398;6.564;2023-02-18T01:21:03;3.67;;;1.55;;
53961;SDS011;39868;53.398;6.564;2023-02-18T01:23:38;7.57;;;1.90;;
53961;SDS011;39868;53.398;6.564;2023-02-18T01:26:06;7.03;;;1.70;;
53961;SDS011;39868;53.398;6.564;2023-02-18T01:28:36;5.15;;;1.52;;
53961;SDS011;39868;53.398;6.564;2023-02-18T01:31:07;6.40;;;1.95;;
53961;SDS011;39868;53.398;6.564;2023-02-18T01:33:37;4.10;;;1.40;;
53961;SDS011;39868;53.398;6.564;2023-02-18T01:36:05;11.55;;;1.70;;
53961;SDS011;39868;53.398;6.564;2023-02-18T01:38:34;6.60;;;1.58;;
53961;SDS011;39868;53.398;6.564;2023-02-18T01:41:02;6.55;;;1.50;;
53961;SDS011;39868;53.398;6.564;2023-02-18T01:43:30;7.50;;;1.95;;
53961;SDS011;39868;53.398;6.564;2023-02-18T01:46:19;4.53;;;1.50;;
53961;SDS011;39868;53.398;6.564;2023-02-18T01:48:52;4.93;;;1.85;;
53961;SDS011;39868;53.398;6.564;2023-02-18T01:56:34;6.15;;;1.88;;
53961;SDS011;39868;53.398;6.564;2023-02-18T01:59:08;3.65;;;2.03;;
53961;SDS011;39868;53.398;6.564;2023-02-18T02:01:44;6.80;;;2.15;;
53961;SDS011;39868;53.398;6.564;2023-02-18T02:04:12;6.75;;;1.48;;
53961;SDS011;39868;53.398;6.564;2023-02-18T02:06:40;4.43;;;1.55;;
53961;SDS011;39868;53.398;6.564;2023-02-18T02:09:08;6.25;;;2.00;;
53961;SDS011;39868;53.398;6.564;2023-02-18T02:17:10;4.47;;;1.52;;
53961;SDS011;39868;53.398;6.564;2023-02-18T02:37:14;5.28;;;2.28;;
53961;SDS011;39868;53.398;6.564;2023-02-18T02:39:25;6.10;;;2.00;;
53961;SDS011;39868;53.398;6.564;2023-02-18T02:45:02;4.22;;;1.90;;
53961;SDS011;39868;53.398;6.564;2023-02-18T02:47:48;8.52;;;1.92;;
53961;SDS011;39868;53.398;6.564;2023-02-18T02:53:16;6.88;;;1.83;;
53961;SDS011;39868;53.398;6.564;2023-02-18T02:55:48;5.43;;;1.90;;
53961;SDS011;39868;53.398;6.564;2023-02-18T02:58:18;4.82;;;2.38;;
53961;SDS011;39868;53.398;6.564;2023-02-18T03:03:57;5.10;;;2.03;;
53961;SDS011;39868;53.398;6.564;2023-02-18T03:06:44;5.93;;;2.17;;
53961;SDS011;39868;53.398;6.564;2023-02-18T03:12:11;7.70;;;1.90;;
53961;SDS011;39868;53.398;6.564;2023-02-18T03:14:55;6.95;;;2.15;;
53961;SDS011;39868;53.398;6.564;2023-02-18T03:17:32;6.82;;;2.63;;
53961;SDS011;39868;53.398;6.564;2023-02-18T03:22:45;5.57;;;2.15;;
53961;SDS011;39868;53.398;6.564;2023-02-18T03:25:15;10.50;;;3.13;;
53961;SDS011;39868;53.398;6.564;2023-02-18T03:28:06;6.90;;;2.30;;
53961;SDS011;39868;53.398;6.564;2023-02-18T03:30:45;7.75;;;2.47;;
53961;SDS011;39868;53.398;6.564;2023-02-18T03:33:19;2.97;;;1.95;;
53961;SDS011;39868;53.398;6.564;2023-02-18T03:35:53;13.32;;;4.35;;
53961;SDS011;39868;53.398;6.564;2023-02-18T03:38:23;9.65;;;3.03;;
53961;SDS011;39868;53.398;6.564;2023-02-18T03:40:59;6.35;;;2.20;;
53961;SDS011;39868;53.398;6.564;2023-02-18T03:43:27;8.57;;;2.35;;
53961;SDS011;39868;53.398;6.564;2023-02-18T03:45:55;7.03;;;2.40;;
53961;SDS011;39868;53.398;6.564;2023-02-18T03:48:23;10.15;;;2.10;;
53961;SDS011;39868;53.398;6.564;2023-02-18T03:50:51;8.88;;;1.95;;
53961;SDS011;39868;53.398;6.564;2023-02-18T03:53:19;6.43;;;2.05;;
53961;SDS011;39868;53.398;6.564;2023-02-18T03:55:46;3.92;;;1.92;;
53961;SDS011;39868;53.398;6.564;2023-02-18T03:58:14;5.60;;;2.22;;
53961;SDS011;39868;53.398;6.564;2023-02-18T04:00:41;7.22;;;2.15;;
53961;SDS011;39868;53.398;6.564;2023-02-18T04:03:09;7.78;;;2.03;;
53961;SDS011;39868;53.398;6.564;2023-02-18T04:05:36;2.78;;;1.65;;
53961;SDS011;39868;53.398;6.564;2023-02-18T04:08:04;7.30;;;2.40;;
53961;SDS011;39868;53.398;6.564;2023-02-18T04:10:31;4.78;;;1.95;;
53961;SDS011;39868;53.398;6.564;2023-02-18T04:12:58;4.93;;;2.17;;
53961;SDS011;39868;53.398;6.564;2023-02-18T04:15:26;4.72;;;2.10;;
53961;SDS011;39868;53.398;6.564;2023-02-18T04:17:53;5.65;;;2.55;;
53961;SDS011;39868;53.398;6.564;2023-02-18T04:20:21;6.22;;;2.10;;
53961;SDS011;39868;53.398;6.564;2023-02-18T04:22:48;4.03;;;2.33;;
53961;SDS011;39868;53.398;6.564;2023-02-18T04:25:15;5.95;;;2.13;;
53961;SDS011;39868;53.398;6.564;2023-02-18T04:27:43;3.72;;;2.50;;
53961;SDS011;39868;53.398;6.564;2023-02-18T04:30:18;4.68;;;2.50;;
53961;SDS011;39868;53.398;6.564;2023-02-18T04:32:46;5.65;;;2.45;;
53961;SDS011;39868;53.398;6.564;2023-02-18T04:35:13;5.88;;;2.30;;
53961;SDS011;39868;53.398;6.564;2023-02-18T04:37:41;3.38;;;2.20;;
53961;SDS011;39868;53.398;6.564;2023-02-18T04:40:08;3.47;;;2.55;;
53961;SDS011;39868;53.398;6.564;2023-02-18T04:42:36;6.75;;;2.78;;
53961;SDS011;39868;53.398;6.564;2023-02-18T04:45:03;8.40;;;3.08;;
53961;SDS011;39868;53.398;6.564;2023-02-18T04:47:31;3.38;;;2.67;;
53961;SDS011;39868;53.398;6.564;2023-02-18T04:49:59;5.97;;;2.95;;
53961;SDS011;39868;53.398;6.564;2023-02-18T04:52:26;5.80;;;2.50;;
53961;SDS011;39868;53.398;6.564;2023-02-18T04:54:54;10.48;;;2.70;;
53961;SDS011;39868;53.398;6.564;2023-02-18T04:57:21;2.78;;;2.35;;
53961;SDS011;39868;53.398;6.564;2023-02-18T04:59:49;4.90;;;2.50;;
53961;SDS011;39868;53.398;6.564;2023-02-18T05:02:16;5.55;;;2.88;;
53961;SDS011;39868;53.398;6.564;2023-02-18T05:04:43;8.30;;;3.22;;
53961;SDS011;39868;53.398;6.564;2023-02-18T05:07:11;5.85;;;2.65;;
53961;SDS011;39868;53.398;6.564;2023-02-18T05:09:38;6.00;;;2.90;;
53961;SDS011;39868;53.398;6.564;2023-02-18T05:12:06;3.40;;;2.53;;
53961;SDS011;39868;53.398;6.564;2023-02-18T05:14:33;4.28;;;2.50;;
53961;SDS011;39868;53.398;6.564;2023-02-18T05:17:00;4.38;;;2.83;;
53961;SDS011;39868;53.398;6.564;2023-02-18T05:19:28;4.95;;;2.45;;
53961;SDS011;39868;53.398;6.564;2023-02-18T05:21:56;6.25;;;3.00;;
53961;SDS011;39868;53.398;6.564;2023-02-18T05:24:23;4.60;;;2.67;;
53961;SDS011;39868;53.398;6.564;2023-02-18T05:26:51;5.43;;;2.90;;
53961;SDS011;39868;53.398;6.564;2023-02-18T05:29:18;4.38;;;3.05;;
53961;SDS011;39868;53.398;6.564;2023-02-18T05:31:45;4.63;;;3.25;;
53961;SDS011;39868;53.398;6.564;2023-02-18T05:34:13;4.55;;;3.65;;
53961;SDS011;39868;53.398;6.564;2023-02-18T05:36:40;4.40;;;3.47;;
53961;SDS011;39868;53.398;6.564;2023-02-18T05:39:08;4.75;;;3.45;;
53961;SDS011;39868;53.398;6.564;2023-02-18T05:41:35;3.85;;;3.47;;
53961;SDS011;39868;53.398;6.564;2023-02-18T05:44:02;6.38;;;3.70;;
53961;SDS011;39868;53.398;6.564;2023-02-18T05:46:48;6.13;;;3.65;;
53961;SDS011;39868;53.398;6.564;2023-02-18T05:49:15;4.50;;;4.10;;
53961;SDS011;39868;53.398;6.564;2023-02-18T05:51:42;4.65;;;4.13;;
53961;SDS011;39868;53.398;6.564;2023-02-18T05:54:10;6.47;;;4.20;;
53961;SDS011;39868;53.398;6.564;2023-02-18T05:56:37;6.93;;;4.60;;
53961;SDS011;39868;53.398;6.564;2023-02-18T05:59:05;7.05;;;4.70;;
53961;SDS011;39868;53.398;6.564;2023-02-18T06:01:32;10.40;;;5.40;;
53961;SDS011;39868;53.398;6.564;2023-02-18T06:04:00;7.75;;;5.35;;
53961;SDS011;39868;53.398;6.564;2023-02-18T06:06:27;10.48;;;5.45;;
53961;SDS011;39868;53.398;6.564;2023-02-18T06:08:55;10.20;;;6.28;;
53961;SDS011;39868;53.398;6.564;2023-02-18T06:11:22;13.35;;;7.65;;
53961;SDS011;39868;53.398;6.564;2023-02-18T06:13:49;11.60;;;6.35;;
53961;SDS011;39868;53.398;6.564;2023-02-18T06:16:17;19.27;;;8.13;;
53961;SDS011;39868;53.398;6.564;2023-02-18T06:18:44;12.93;;;7.78;;
53961;SDS011;39868;53.398;6.564;2023-02-18T06:21:11;14.20;;;7.95;;
53961;SDS011;39868;53.398;6.564;2023-02-18T06:23:39;13.93;;;7.93;;
53961;SDS011;39868;53.398;6.564;2023-02-18T06:26:06;18.65;;;9.27;;
53961;SDS011;39868;53.398;6.564;2023-02-18T06:28:34;14.45;;;9.38;;
53961;SDS011;39868;53.398;6.564;2023-02-18T06:31:02;16.23;;;8.82;;
53961;SDS011;39868;53.398;6.564;2023-02-18T06:33:29;20.50;;;9.75;;
53961;SDS011;39868;53.398;6.564;2023-02-18T06:35:58;18.05;;;10.90;;
53961;SDS011;39868;53.398;6.564;2023-02-18T06:38:27;20.40;;;10.73;;
53961;SDS011;39868;53.398;6.564;2023-02-18T06:40:55;13.70;;;8.85;;
53961;SDS011;39868;53.398;6.564;2023-02-18T06:43:22;20.85;;;9.30;;
53961;SDS011;39868;53.398;6.564;2023-02-18T06:45:50;10.52;;;7.45;;
53961;SDS011;39868;53.398;6.564;2023-02-18T06:48:17;13.13;;;7.45;;
53961;SDS011;39868;53.398;6.564;2023-02-18T06:50:45;9.90;;;7.00;;
53961;SDS011;39868;53.398;6.564;2023-02-18T06:53:12;10.63;;;7.35;;
53961;SDS011;39868;53.398;6.564;2023-02-18T06:55:40;9.70;;;7.68;;
53961;SDS011;39868;53.398;6.564;2023-02-18T06:58:08;8.88;;;7.05;;
53961;SDS011;39868;53.398;6.564;2023-02-18T07:00:36;8.82;;;6.72;;
53961;SDS011;39868;53.398;6.564;2023-02-18T07:03:04;7.90;;;6.32;;
53961;SDS011;39868;53.398;6.564;2023-02-18T07:05:33;9.05;;;7.20;;
53961;SDS011;39868;53.398;6.564;2023-02-18T07:08:00;9.82;;;7.25;;
53961;SDS011;39868;53.398;6.564;2023-02-18T07:10:28;9.95;;;6.85;;
53961;SDS011;39868;53.398;6.564;2023-02-18T07:12:58;8.57;;;7.00;;
53961;SDS011;39868;53.398;6.564;2023-02-18T07:15:26;8.73;;;7.72;;
53961;SDS011;39868;53.398;6.564;2023-02-18T07:17:53;12.07;;;8.77;;
53961;SDS011;39868;53.398;6.564;2023-02-18T07:20:21;10.63;;;8.95;;
53961;SDS011;39868;53.398;6.564;2023-02-18T07:22:49;12.38;;;9.30;;
53961;SDS011;39868;53.398;6.564;2023-02-18T07:25:17;13.32;;;9.63;;
53961;SDS011;39868;53.398;6.564;2023-02-18T07:27:47;15.43;;;9.15;;
53961;SDS011;39868;53.398;6.564;2023-02-18T07:30:15;13.07;;;9.45;;
53961;SDS011;39868;53.398;6.564;2023-02-18T07:32:42;9.18;;;8.13;;
53961;SDS011;39868;53.398;6.564;2023-02-18T07:35:12;15.55;;;9.40;;
53961;SDS011;39868;53.398;6.564;2023-02-18T07:37:44;12.90;;;9.10;;
53961;SDS011;39868;53.398;6.564;2023-02-18T07:40:17;11.00;;;9.13;;
53961;SDS011;39868;53.398;6.564;2023-02-18T07:42:46;12.77;;;9.00;;
53961;SDS011;39868;53.398;6.564;2023-02-18T07:45:14;13.48;;;9.10;;
53961;SDS011;39868;53.398;6.564;2023-02-18T07:47:41;11.27;;;9.32;;
53961;SDS011;39868;53.398;6.564;2023-02-18T07:50:09;10.77;;;9.10;;
53961;SDS011;39868;53.398;6.564;2023-02-18T07:52:36;9.60;;;8.40;;
53961;SDS011;39868;53.398;6.564;2023-02-18T07:55:07;10.02;;;8.82;;
53961;SDS011;39868;53.398;6.564;2023-02-18T07:57:34;11.45;;;8.57;;
53961;SDS011;39868;53.398;6.564;2023-02-18T08:00:22;12.23;;;8.07;;
53961;SDS011;39868;53.398;6.564;2023-02-18T08:02:49;12.05;;;8.25;;
53961;SDS011;39868;53.398;6.564;2023-02-18T08:05:17;8.27;;;7.43;;
53961;SDS011;39868;53.398;6.564;2023-02-18T08:07:44;11.60;;;8.70;;
53961;SDS011;39868;53.398;6.564;2023-02-18T08:10:12;9.05;;;7.88;;
53961;SDS011;39868;53.398;6.564;2023-02-18T08:12:39;8.90;;;7.85;;
53961;SDS011;39868;53.398;6.564;2023-02-18T08:15:07;11.02;;;7.82;;
53961;SDS011;39868;53.398;6.564;2023-02-18T08:17:34;8.25;;;6.97;;
53961;SDS011;39868;53.398;6.564;2023-02-18T08:20:02;9.38;;;7.22;;
53961;SDS011;39868;53.398;6.564;2023-02-18T08:22:30;8.23;;;7.40;;
53961;SDS011;39868;53.398;6.564;2023-02-18T08:24:58;7.45;;;6.70;;
53961;SDS011;39868;53.398;6.564;2023-02-18T08:27:25;8.20;;;6.70;;
53961;SDS011;39868;53.398;6.564;2023-02-18T08:29:52;7.82;;;6.80;;
53961;SDS011;39868;53.398;6.564;2023-02-18T08:32:21;7.30;;;6.68;;
53961;SDS011;39868;53.398;6.564;2023-02-18T08:34:48;8.27;;;7.18;;
53961;SDS011;39868;53.398;6.564;2023-02-18T08:37:16;8.48;;;5.97;;
53961;SDS011;39868;53.398;6.564;2023-02-18T08:39:43;8.25;;;6.18;;
53961;SDS011;39868;53.398;6.564;2023-02-18T08:42:11;6.53;;;5.95;;
53961;SDS011;39868;53.398;6.564;2023-02-18T08:44:38;10.23;;;6.22;;
53961;SDS011;39868;53.398;6.564;2023-02-18T08:47:05;8.77;;;6.28;;
53961;SDS011;39868;53.398;6.564;2023-02-18T08:49:53;7.75;;;5.95;;
53961;SDS011;39868;53.398;6.564;2023-02-18T08:52:20;7.18;;;5.97;;
53961;SDS011;39868;53.398;6.564;2023-02-18T08:54:48;7.53;;;5.78;;
53961;SDS011;39868;53.398;6.564;2023-02-18T08:57:16;6.50;;;5.63;;
53961;SDS011;39868;53.398;6.564;2023-02-18T08:59:45;6.57;;;5.65;;
53961;SDS011;39868;53.398;6.564;2023-02-18T09:02:12;5.93;;;5.32;;
53961;SDS011;39868;53.398;6.564;2023-02-18T09:04:40;5.90;;;5.50;;
53961;SDS011;39868;53.398;6.564;2023-02-18T09:07:08;5.68;;;4.93;;
53961;SDS011;39868;53.398;6.564;2023-02-18T09:09:35;7.68;;;5.28;;
53961;SDS011;39868;53.398;6.564;2023-02-18T09:12:03;9.70;;;5.07;;
53961;SDS011;39868;53.398;6.564;2023-02-18T09:14:30;6.47;;;5.28;;
53961;SDS011;39868;53.398;6.564;2023-02-18T09:16:58;5.30;;;4.90;;
53961;SDS011;39868;53.398;6.564;2023-02-18T09:19:25;6.05;;;5.10;;
53961;SDS011;39868;53.398;6.564;2023-02-18T09:21:52;7.65;;;5.18;;
53961;SDS011;39868;53.398;6.564;2023-02-18T09:24:20;5.55;;;5.00;;
53961;SDS011;39868;53.398;6.564;2023-02-18T09:26:47;5.43;;;4.90;;
53961;SDS011;39868;53.398;6.564;2023-02-18T09:29:14;4.93;;;4.57;;
53961;SDS011;39868;53.398;6.564;2023-02-18T09:31:43;7.43;;;5.18;;
53961;SDS011;39868;53.398;6.564;2023-02-18T09:34:11;6.57;;;4.70;;
53961;SDS011;39868;53.398;6.564;2023-02-18T09:36:38;5.78;;;5.30;;
53961;SDS011;39868;53.398;6.564;2023-02-18T09:39:06;5.25;;;4.53;;
53961;SDS011;39868;53.398;6.564;2023-02-18T09:44:08;6.15;;;4.93;;
53961;SDS011;39868;53.398;6.564;2023-02-18T09:46:45;5.05;;;4.65;;
53961;SDS011;39868;53.398;6.564;2023-02-18T09:49:31;7.22;;;5.78;;
53961;SDS011;39868;53.398;6.564;2023-02-18T09:54:38;7.03;;;5.25;;
53961;SDS011;39868;53.398;6.564;2023-02-18T09:57:05;6.32;;;5.57;;
53961;SDS011;39868;53.398;6.564;2023-02-18T09:59:47;7.50;;;5.40;;
53961;SDS011;39868;53.398;6.564;2023-02-18T10:02:23;6.05;;;5.25;;
53961;SDS011;39868;53.398;6.564;2023-02-18T10:04:51;6.38;;;5.10;;
53961;SDS011;39868;53.398;6.564;2023-02-18T10:07:22;8.48;;;6.18;;
53961;SDS011;39868;53.398;6.564;2023-02-18T10:09:54;7.85;;;5.22;;
53961;SDS011;39868;53.398;6.564;2023-02-18T10:12:24;6.45;;;4.90;;
53961;SDS011;39868;53.398;6.564;2023-02-18T10:14:53;9.07;;;5.47;;
53961;SDS011;39868;53.398;6.564;2023-02-18T10:17:23;8.57;;;4.97;;
53961;SDS011;39868;53.398;6.564;2023-02-18T10:19:52;9.70;;;5.55;;
53961;SDS011;39868;53.398;6.564;2023-02-18T10:22:21;8.32;;;4.70;;
53961;SDS011;39868;53.398;6.564;2023-02-18T10:24:51;7.53;;;4.60;;
53961;SDS011;39868;53.398;6.564;2023-02-18T10:27:36;8.00;;;4.25;;
53961;SDS011;39868;53.398;6.564;2023-02-18T10:33:16;7.47;;;4.95;;
53961;SDS011;39868;53.398;6.564;2023-02-18T10:38:57;6.63;;;4.28;;
53961;SDS011;39868;53.398;6.564;2023-02-18T10:41:31;6.15;;;4.10;;
53961;SDS011;39868;53.398;6.564;2023-02-18T10:50:09;10.45;;;4.40;;
53961;SDS011;39868;53.398;6.564;2023-02-18T10:52:41;10.43;;;4.72;;
53961;SDS011;39868;53.398;6.564;2023-02-18T10:55:11;5.25;;;4.30;;
53961;SDS011;39868;53.398;6.564;2023-02-18T10:57:45;13.63;;;5.05;;
53961;SDS011;39868;53.398;6.564;2023-02-18T11:00:19;8.90;;;4.63;;
53961;SDS011;39868;53.398;6.564;2023-02-18T11:05:41;9.48;;;4.47;;
53961;SDS011;39868;53.398;6.564;2023-02-18T11:08:16;6.55;;;4.43;;
53961;SDS011;39868;53.398;6.564;2023-02-18T11:10:49;10.30;;;3.63;;
53961;SDS011;39868;53.398;6.564;2023-02-18T11:13:25;6.85;;;3.88;;
53961;SDS011;39868;53.398;6.564;2023-02-18T11:15:56;6.38;;;3.92;;
53961;SDS011;39868;53.398;6.564;2023-02-18T11:21:17;6.47;;;3.50;;
53961;SDS011;39868;53.398;6.564;2023-02-18T11:24:08;9.10;;;4.18;;
53961;SDS011;39868;53.398;6.564;2023-02-18T11:26:40;7.72;;;3.60;;
53961;SDS011;39868;53.398;6.564;2023-02-18T11:29:14;9.05;;;3.95;;
53961;SDS011;39868;53.398;6.564;2023-02-18T11:31:46;7.07;;;3.70;;
53961;SDS011;39868;53.398;6.564;2023-02-18T11:34:20;5.57;;;3.58;;
53961;SDS011;39868;53.398;6.564;2023-02-18T11:36:52;8.98;;;3.95;;
53961;SDS011;39868;53.398;6.564;2023-02-18T11:39:25;11.05;;;3.88;;
53961;SDS011;39868;53.398;6.564;2023-02-18T11:41:57;12.23;;;4.55;;
53961;SDS011;39868;53.398;6.564;2023-02-18T11:44:35;12.40;;;4.00;;
53961;SDS011;39868;53.398;6.564;2023-02-18T11:49:43;9.30;;;3.80;;
53961;SDS011;39868;53.398;6.564;2023-02-18T11:52:25;9.95;;;3.40;;
53961;SDS011;39868;53.398;6.564;2023-02-18T11:54:58;7.93;;;3.72;;
53961;SDS011;39868;53.398;6.564;2023-02-18T11:57:28;11.55;;;4.05;;
53961;SDS011;39868;53.398;6.564;2023-02-18T11:59:57;9.68;;;3.90;;
53961;SDS011;39868;53.398;6.564;2023-02-18T12:02:31;9.63;;;3.30;;
53961;SDS011;39868;53.398;6.564;2023-02-18T12:05:04;8.13;;;3.30;;
53961;SDS011;39868;53.398;6.564;2023-02-18T12:13:25;8.57;;;3.53;;
53961;SDS011;39868;53.398;6.564;2023-02-18T12:18:52;9.80;;;3.70;;
53961;SDS011;39868;53.398;6.564;2023-02-18T12:30:26;10.38;;;2.90;;
53961;SDS011;39868;53.398;6.564;2023-02-18T12:33:07;9.30;;;3.13;;
53961;SDS011;39868;53.398;6.564;2023-02-18T12:38:47;12.60;;;2.60;;
53961;SDS011;39868;53.398;6.564;2023-02-18T12:55:50;5.88;;;3.05;;
53961;SDS011;39868;53.398;6.564;2023-02-18T12:58:42;9.50;;;2.97;;
53961;SDS011;39868;53.398;6.564;2023-02-18T13:16:59;10.32;;;2.63;;
53961;SDS011;39868;53.398;6.564;2023-02-18T13:19:33;11.00;;;2.75;;
53961;SDS011;39868;53.398;6.564;2023-02-18T13:22:17;11.38;;;2.28;;
53961;SDS011;39868;53.398;6.564;2023-02-18T13:24:48;6.63;;;2.38;;
53961;SDS011;39868;53.398;6.564;2023-02-18T13:35:51;7.82;;;2.20;;
53961;SDS011;39868;53.398;6.564;2023-02-18T13:41:17;11.02;;;3.03;;
53961;SDS011;39868;53.398;6.564;2023-02-18T13:43:46;12.00;;;2.63;;
53961;SDS011;39868;53.398;6.564;2023-02-18T13:46:17;8.50;;;2.30;;
53961;SDS011;39868;53.398;6.564;2023-02-18T13:49:02;7.78;;;2.17;;
53961;SDS011;39868;53.398;6.564;2023-02-18T13:51:39;7.78;;;2.35;;
53961;SDS011;39868;53.398;6.564;2023-02-18T13:56:59;12.95;;;2.72;;
53961;SDS011;39868;53.398;6.564;2023-02-18T14:02:28;7.15;;;2.15;;
53961;SDS011;39868;53.398;6.564;2023-02-18T14:12:42;6.88;;;2.42;;
53961;SDS011;39868;53.398;6.564;2023-02-18T14:18:23;11.77;;;2.63;;
53961;SDS011;39868;53.398;6.564;2023-02-18T14:20:51;13.85;;;3.38;;
53961;SDS011;39868;53.398;6.564;2023-02-18T14:50:34;13.02;;;3.30;;
53961;SDS011;39868;53.398;6.564;2023-02-18T14:53:07;8.35;;;3.15;;
53961;SDS011;39868;53.398;6.564;2023-02-18T14:55:45;12.68;;;3.15;;
53961;SDS011;39868;53.398;6.564;2023-02-18T15:01:04;10.68;;;3.05;;
53961;SDS011;39868;53.398;6.564;2023-02-18T15:04:02;7.05;;;2.63;;
53961;SDS011;39868;53.398;6.564;2023-02-18T15:06:31;13.30;;;3.30;;
53961;SDS011;39868;53.398;6.564;2023-02-18T15:09:01;11.05;;;2.92;;
53961;SDS011;39868;53.398;6.564;2023-02-18T15:11:40;10.65;;;2.90;;
53961;SDS011;39868;53.398;6.564;2023-02-18T15:14:16;13.30;;;2.70;;
53961;SDS011;39868;53.398;6.564;2023-02-18T15:16:51;6.80;;;2.70;;
53961;SDS011;39868;53.398;6.564;2023-02-18T15:19:20;15.55;;;3.05;;
53961;SDS011;39868;53.398;6.564;2023-02-18T15:21:50;14.18;;;3.10;;
53961;SDS011;39868;53.398;6.564;2023-02-18T15:27:04;9.52;;;2.67;;
53961;SDS011;39868;53.398;6.564;2023-02-18T15:29:42;10.02;;;3.28;;
53961;SDS011;39868;53.398;6.564;2023-02-18T15:32:20;8.98;;;3.22;;
53961;SDS011;39868;53.398;6.564;2023-02-18T15:34:51;9.85;;;2.63;;
53961;SDS011;39868;53.398;6.564;2023-02-18T15:37:23;9.30;;;2.90;;
53961;SDS011;39868;53.398;6.564;2023-02-18T15:39:50;11.25;;;2.67;;
53961;SDS011;39868;53.398;6.564;2023-02-18T15:44:57;10.63;;;2.63;;
53961;SDS011;39868;53.398;6.564;2023-02-18T15:47:46;7.50;;;3.25;;
53961;SDS011;39868;53.398;6.564;2023-02-18T15:50:19;12.07;;;3.35;;
53961;SDS011;39868;53.398;6.564;2023-02-18T15:52:54;12.98;;;3.03;;
53961;SDS011;39868;53.398;6.564;2023-02-18T15:55:38;14.47;;;3.07;;
53961;SDS011;39868;53.398;6.564;2023-02-18T15:58:16;12.23;;;2.45;;
53961;SDS011;39868;53.398;6.564;2023-02-18T16:00:48;14.93;;;3.42;;
53961;SDS011;39868;53.398;6.564;2023-02-18T16:03:23;8.15;;;2.72;;
53961;SDS011;39868;53.398;6.564;2023-02-18T16:05:51;16.63;;;3.55;;
53961;SDS011;39868;53.398;6.564;2023-02-18T16:08:38;14.13;;;3.45;;
53961;SDS011;39868;53.398;6.564;2023-02-18T16:11:10;9.07;;;3.00;;
53961;SDS011;39868;53.398;6.564;2023-02-18T16:13:45;8.27;;;2.85;;
53961;SDS011;39868;53.398;6.564;2023-02-18T16:16:21;12.98;;;3.45;;
53961;SDS011;39868;53.398;6.564;2023-02-18T16:18:51;9.40;;;3.08;;
53961;SDS011;39868;53.398;6.564;2023-02-18T16:21:22;10.70;;;2.85;;
53961;SDS011;39868;53.398;6.564;2023-02-18T16:23:57;13.20;;;2.90;;
53961;SDS011;39868;53.398;6.564;2023-02-18T16:26:39;9.50;;;2.95;;
53961;SDS011;39868;53.398;6.564;2023-02-18T16:29:11;10.15;;;4.00;;
53961;SDS011;39868;53.398;6.564;2023-02-18T16:31:39;9.65;;;3.42;;
53961;SDS011;39868;53.398;6.564;2023-02-18T16:34:08;11.20;;;3.50;;
53961;SDS011;39868;53.398;6.564;2023-02-18T16:36:36;10.80;;;3.42;;
53961;SDS011;39868;53.398;6.564;2023-02-18T16:39:03;8.00;;;2.85;;
53961;SDS011;39868;53.398;6.564;2023-02-18T16:41:30;6.55;;;2.85;;
53961;SDS011;39868;53.398;6.564;2023-02-18T16:43:58;6.32;;;2.65;;
53961;SDS011;39868;53.398;6.564;2023-02-18T16:46:25;12.55;;;3.20;;
53961;SDS011;39868;53.398;6.564;2023-02-18T16:48:53;8.07;;;2.72;;
53961;SDS011;39868;53.398;6.564;2023-02-18T16:51:23;10.60;;;3.33;;
53961;SDS011;39868;53.398;6.564;2023-02-18T16:53:55;12.93;;;3.42;;
53961;SDS011;39868;53.398;6.564;2023-02-18T16:56:26;9.68;;;3.28;;
53961;SDS011;39868;53.398;6.564;2023-02-18T16:58:58;14.18;;;3.63;;
53961;SDS011;39868;53.398;6.564;2023-02-18T17:01:29;8.10;;;3.40;;
53961;SDS011;39868;53.398;6.564;2023-02-18T17:04:00;5.95;;;2.88;;
53961;SDS011;39868;53.398;6.564;2023-02-18T17:06:29;10.20;;;3.45;;
53961;SDS011;39868;53.398;6.564;2023-02-18T17:08:59;11.85;;;4.10;;
53961;SDS011;39868;53.398;6.564;2023-02-18T17:11:31;6.68;;;4.22;;
53961;SDS011;39868;53.398;6.564;2023-02-18T17:14:01;9.73;;;3.72;;
53961;SDS011;39868;53.398;6.564;2023-02-18T17:16:30;7.63;;;3.13;;
53961;SDS011;39868;53.398;6.564;2023-02-18T17:18:58;12.73;;;3.35;;
53961;SDS011;39868;53.398;6.564;2023-02-18T17:21:25;12.10;;;3.47;;
53961;SDS011;39868;53.398;6.564;2023-02-18T17:23:52;13.10;;;3.88;;
53961;SDS011;39868;53.398;6.564;2023-02-18T17:26:21;11.27;;;3.40;;
53961;SDS011;39868;53.398;6.564;2023-02-18T17:28:50;11.18;;;3.60;;
53961;SDS011;39868;53.398;6.564;2023-02-18T17:31:19;22.38;;;4.05;;
53961;SDS011;39868;53.398;6.564;2023-02-18T17:33:55;15.60;;;3.88;;
53961;SDS011;39868;53.398;6.564;2023-02-18T17:36:25;14.63;;;4.68;;
53961;SDS011;39868;53.398;6.564;2023-02-18T17:38:52;15.05;;;4.45;;
53961;SDS011;39868;53.398;6.564;2023-02-18T17:41:20;12.35;;;3.80;;
53961;SDS011;39868;53.398;6.564;2023-02-18T17:43:47;13.90;;;3.63;;
53961;SDS011;39868;53.398;6.564;2023-02-18T17:46:16;13.50;;;3.85;;
53961;SDS011;39868;53.398;6.564;2023-02-18T17:48:45;10.77;;;3.92;;
53961;SDS011;39868;53.398;6.564;2023-02-18T17:51:25;14.57;;;3.67;;
53961;SDS011;39868;53.398;6.564;2023-02-18T17:53:55;10.20;;;3.95;;
53961;SDS011;39868;53.398;6.564;2023-02-18T17:56:22;12.52;;;3.58;;
53961;SDS011;39868;53.398;6.564;2023-02-18T17:58:50;9.07;;;3.90;;
53961;SDS011;39868;53.398;6.564;2023-02-18T18:01:17;12.57;;;3.90;;
53961;SDS011;39868;53.398;6.564;2023-02-18T18:03:46;11.55;;;3.70;;
53961;SDS011;39868;53.398;6.564;2023-02-18T18:06:15;10.93;;;3.65;;